sensor_id;sensor_type;location;lat;lon;timestamp;temperature;humidity
51215;DHT22;63849;47.546;19.254;2023-04-24T00:00:57;13.30;56.30
51215;DHT22;63849;47.546;19.254;2023-04-24T00:03:24;13.40;55.80
51215;DHT22;63849;47.546;19.254;2023-04-24T00:05:50;13.60;55.40
51215;DHT22;63849;47.546;19.254;2023-04-24T00:08:17;13.70;55.00
51215;DHT22;63849;47.546;19.254;2023-04-24T00:10:43;13.60;55.30
51215;DHT22;63849;47.546;19.254;2023-04-24T00:13:09;13.60;54.70
51215;DHT22;63849;47.546;19.254;2023-04-24T00:15:35;13.60;54.60
51215;DHT22;63849;47.546;19.254;2023-04-24T00:18:00;13.60;54.60
51215;DHT22;63849;47.546;19.254;2023-04-24T00:20:27;13.70;54.70
51215;DHT22;63849;47.546;19.254;2023-04-24T00:22:58;13.80;54.40
51215;DHT22;63849;47.546;19.254;2023-04-24T00:25:24;13.80;54.20
51215;DHT22;63849;47.546;19.254;2023-04-24T00:27:50;13.80;55.10
51215;DHT22;63849;47.546;19.254;2023-04-24T00:30:16;13.80;54.40
51215;DHT22;63849;47.546;19.254;2023-04-24T00:32:42;13.80;54.30
51215;DHT22;63849;47.546;19.254;2023-04-24T00:35:08;13.80;54.20
51215;DHT22;63849;47.546;19.254;2023-04-24T00:37:34;13.80;54.20
51215;DHT22;63849;47.546;19.254;2023-04-24T00:40:00;13.90;54.10
51215;DHT22;63849;47.546;19.254;2023-04-24T00:42:26;13.90;54.50
51215;DHT22;63849;47.546;19.254;2023-04-24T00:44:52;13.90;54.20
51215;DHT22;63849;47.546;19.254;2023-04-24T00:47:19;13.90;54.00
51215;DHT22;63849;47.546;19.254;2023-04-24T00:49:45;13.90;54.50
51215;DHT22;63849;47.546;19.254;2023-04-24T00:52:11;13.80;56.70
51215;DHT22;63849;47.546;19.254;2023-04-24T00:54:37;13.70;55.50
51215;DHT22;63849;47.546;19.254;2023-04-24T00:57:03;13.80;55.20
51215;DHT22;63849;47.546;19.254;2023-04-24T00:59:31;13.90;54.80
51215;DHT22;63849;47.546;19.254;2023-04-24T01:01:58;13.80;55.00
51215;DHT22;63849;47.546;19.254;2023-04-24T01:04:24;13.80;55.50
51215;DHT22;63849;47.546;19.254;2023-04-24T01:06:51;13.80;54.90
51215;DHT22;63849;47.546;19.254;2023-04-24T01:09:18;13.80;55.10
51215;DHT22;63849;47.546;19.254;2023-04-24T01:11:44;13.80;55.10
51215;DHT22;63849;47.546;19.254;2023-04-24T01:14:10;13.70;55.30
51215;DHT22;63849;47.546;19.254;2023-04-24T01:16:36;13.60;55.40
51215;DHT22;63849;47.546;19.254;2023-04-24T01:19:05;13.50;56.70
51215;DHT22;63849;47.546;19.254;2023-04-24T01:21:35;13.50;57.70
51215;DHT22;63849;47.546;19.254;2023-04-24T01:24:03;13.50;57.50
51215;DHT22;63849;47.546;19.254;2023-04-24T01:26:29;13.40;56.90
51215;DHT22;63849;47.546;19.254;2023-04-24T01:28:56;13.40;57.40
51215;DHT22;63849;47.546;19.254;2023-04-24T01:31:22;13.40;56.20
51215;DHT22;63849;47.546;19.254;2023-04-24T01:33:48;13.40;57.20
51215;DHT22;63849;47.546;19.254;2023-04-24T01:36:16;13.40;56.90
51215;DHT22;63849;47.546;19.254;2023-04-24T01:38:42;13.40;56.60
51215;DHT22;63849;47.546;19.254;2023-04-24T01:41:08;13.30;57.50
51215;DHT22;63849;47.546;19.254;2023-04-24T01:43:33;13.20;58.20
51215;DHT22;63849;47.546;19.254;2023-04-24T01:45:59;13.10;58.20
51215;DHT22;63849;47.546;19.254;2023-04-24T01:48:28;13.10;58.70
51215;DHT22;63849;47.546;19.254;2023-04-24T01:50:54;13.10;59.20
51215;DHT22;63849;47.546;19.254;2023-04-24T01:53:20;13.20;57.70
51215;DHT22;63849;47.546;19.254;2023-04-24T01:55:46;13.20;57.60
51215;DHT22;63849;47.546;19.254;2023-04-24T01:58:12;13.20;58.10
51215;DHT22;63849;47.546;19.254;2023-04-24T02:00:37;13.10;57.70
51215;DHT22;63849;47.546;19.254;2023-04-24T02:03:03;13.10;59.20
51215;DHT22;63849;47.546;19.254;2023-04-24T02:05:29;13.00;59.70
51215;DHT22;63849;47.546;19.254;2023-04-24T02:07:55;12.90;60.00
51215;DHT22;63849;47.546;19.254;2023-04-24T02:10:21;12.90;59.90
51215;DHT22;63849;47.546;19.254;2023-04-24T02:12:47;13.00;59.20
51215;DHT22;63849;47.546;19.254;2023-04-24T02:15:13;13.00;59.50
51215;DHT22;63849;47.546;19.254;2023-04-24T02:17:38;13.00;59.00
51215;DHT22;63849;47.546;19.254;2023-04-24T02:20:06;13.10;59.30
51215;DHT22;63849;47.546;19.254;2023-04-24T02:22:33;13.10;59.00
51215;DHT22;63849;47.546;19.254;2023-04-24T02:24:58;13.10;58.70
51215;DHT22;63849;47.546;19.254;2023-04-24T02:27:25;13.10;58.90
51215;DHT22;63849;47.546;19.254;2023-04-24T02:29:51;13.10;58.80
51215;DHT22;63849;47.546;19.254;2023-04-24T02:32:18;13.20;58.90
51215;DHT22;63849;47.546;19.254;2023-04-24T02:34:44;13.30;60.10
51215;DHT22;63849;47.546;19.254;2023-04-24T02:37:09;13.30;61.20
51215;DHT22;63849;47.546;19.254;2023-04-24T02:39:35;13.10;63.60
51215;DHT22;63849;47.546;19.254;2023-04-24T02:42:01;12.80;68.40
51215;DHT22;63849;47.546;19.254;2023-04-24T02:44:27;12.60;68.40
51215;DHT22;63849;47.546;19.254;2023-04-24T02:46:53;12.60;67.30
51215;DHT22;63849;47.546;19.254;2023-04-24T02:49:18;12.60;69.10
51215;DHT22;63849;47.546;19.254;2023-04-24T02:51:44;12.60;67.70
51215;DHT22;63849;47.546;19.254;2023-04-24T02:54:10;12.50;69.60
51215;DHT22;63849;47.546;19.254;2023-04-24T02:56:36;12.50;68.40
51215;DHT22;63849;47.546;19.254;2023-04-24T02:59:03;12.50;69.20
51215;DHT22;63849;47.546;19.254;2023-04-24T03:01:29;12.50;68.10
51215;DHT22;63849;47.546;19.254;2023-04-24T03:03:55;12.50;68.80
51215;DHT22;63849;47.546;19.254;2023-04-24T03:06:21;12.50;69.70
51215;DHT22;63849;47.546;19.254;2023-04-24T03:08:47;12.60;69.90
51215;DHT22;63849;47.546;19.254;2023-04-24T03:11:12;12.50;71.20
51215;DHT22;63849;47.546;19.254;2023-04-24T03:13:38;12.50;70.40
51215;DHT22;63849;47.546;19.254;2023-04-24T03:16:04;12.50;70.20
51215;DHT22;63849;47.546;19.254;2023-04-24T03:18:31;12.60;70.40
51215;DHT22;63849;47.546;19.254;2023-04-24T03:20:57;12.50;71.80
51215;DHT22;63849;47.546;19.254;2023-04-24T03:23:23;12.60;70.80
51215;DHT22;63849;47.546;19.254;2023-04-24T03:25:49;12.60;70.20
51215;DHT22;63849;47.546;19.254;2023-04-24T03:28:14;12.60;69.80
51215;DHT22;63849;47.546;19.254;2023-04-24T03:30:40;12.60;70.00
51215;DHT22;63849;47.546;19.254;2023-04-24T03:33:06;12.60;70.40
51215;DHT22;63849;47.546;19.254;2023-04-24T03:35:32;12.60;70.40
51215;DHT22;63849;47.546;19.254;2023-04-24T03:37:58;12.70;70.80
51215;DHT22;63849;47.546;19.254;2023-04-24T03:40:24;12.60;70.20
51215;DHT22;63849;47.546;19.254;2023-04-24T03:42:50;12.70;69.80
51215;DHT22;63849;47.546;19.254;2023-04-24T03:45:16;12.70;69.40
51215;DHT22;63849;47.546;19.254;2023-04-24T03:47:41;12.80;68.80
51215;DHT22;63849;47.546;19.254;2023-04-24T03:50:07;12.80;67.90
51215;DHT22;63849;47.546;19.254;2023-04-24T03:52:33;12.60;68.30
51215;DHT22;63849;47.546;19.254;2023-04-24T03:54:59;12.50;68.60
51215;DHT22;63849;47.546;19.254;2023-04-24T03:57:25;12.40;68.30
51215;DHT22;63849;47.546;19.254;2023-04-24T03:59:51;12.40;69.30
51215;DHT22;63849;47.546;19.254;2023-04-24T04:02:17;12.40;68.80
51215;DHT22;63849;47.546;19.254;2023-04-24T04:04:43;12.40;69.60
51215;DHT22;63849;47.546;19.254;2023-04-24T04:07:08;12.40;68.80
51215;DHT22;63849;47.546;19.254;2023-04-24T04:09:34;12.40;69.50
51215;DHT22;63849;47.546;19.254;2023-04-24T04:12:00;12.40;68.40
51215;DHT22;63849;47.546;19.254;2023-04-24T04:14:27;12.40;68.10
51215;DHT22;63849;47.546;19.254;2023-04-24T04:16:54;12.30;69.40
51215;DHT22;63849;47.546;19.254;2023-04-24T04:19:20;12.50;66.70
51215;DHT22;63849;47.546;19.254;2023-04-24T04:21:46;12.40;66.50
51215;DHT22;63849;47.546;19.254;2023-04-24T04:24:16;12.40;66.80
51215;DHT22;63849;47.546;19.254;2023-04-24T04:26:42;12.40;66.90
51215;DHT22;63849;47.546;19.254;2023-04-24T04:29:13;12.40;66.70
51215;DHT22;63849;47.546;19.254;2023-04-24T04:31:39;12.40;66.60
51215;DHT22;63849;47.546;19.254;2023-04-24T04:34:05;12.30;66.90
51215;DHT22;63849;47.546;19.254;2023-04-24T04:36:31;12.30;66.40
51215;DHT22;63849;47.546;19.254;2023-04-24T04:38:57;12.30;66.70
51215;DHT22;63849;47.546;19.254;2023-04-24T04:41:25;12.30;67.00
51215;DHT22;63849;47.546;19.254;2023-04-24T04:43:50;12.30;67.10
51215;DHT22;63849;47.546;19.254;2023-04-24T04:46:18;12.40;66.60
51215;DHT22;63849;47.546;19.254;2023-04-24T04:48:44;12.50;66.50
51215;DHT22;63849;47.546;19.254;2023-04-24T04:51:10;12.50;68.00
51215;DHT22;63849;47.546;19.254;2023-04-24T04:53:35;12.60;66.60
51215;DHT22;63849;47.546;19.254;2023-04-24T04:56:01;12.70;66.80
51215;DHT22;63849;47.546;19.254;2023-04-24T04:58:27;12.90;66.10
51215;DHT22;63849;47.546;19.254;2023-04-24T05:00:53;13.00;66.00
51215;DHT22;63849;47.546;19.254;2023-04-24T05:03:19;12.90;65.50
51215;DHT22;63849;47.546;19.254;2023-04-24T05:05:45;12.90;65.70
51215;DHT22;63849;47.546;19.254;2023-04-24T05:08:11;12.90;66.20
51215;DHT22;63849;47.546;19.254;2023-04-24T05:10:37;12.90;65.70
51215;DHT22;63849;47.546;19.254;2023-04-24T05:13:03;12.60;66.20
51215;DHT22;63849;47.546;19.254;2023-04-24T05:15:30;12.60;66.20
51215;DHT22;63849;47.546;19.254;2023-04-24T05:17:56;12.60;67.10
51215;DHT22;63849;47.546;19.254;2023-04-24T05:20:21;12.70;66.70
51215;DHT22;63849;47.546;19.254;2023-04-24T05:22:47;13.10;65.60
51215;DHT22;63849;47.546;19.254;2023-04-24T05:25:13;13.00;65.20
51215;DHT22;63849;47.546;19.254;2023-04-24T05:27:39;13.10;65.50
51215;DHT22;63849;47.546;19.254;2023-04-24T05:30:06;13.00;65.10
51215;DHT22;63849;47.546;19.254;2023-04-24T05:32:32;12.80;66.00
51215;DHT22;63849;47.546;19.254;2023-04-24T05:34:57;12.80;66.40
51215;DHT22;63849;47.546;19.254;2023-04-24T05:37:24;12.70;66.60
51215;DHT22;63849;47.546;19.254;2023-04-24T05:39:50;12.70;66.90
51215;DHT22;63849;47.546;19.254;2023-04-24T05:42:16;12.90;66.40
51215;DHT22;63849;47.546;19.254;2023-04-24T05:44:41;12.70;66.90
51215;DHT22;63849;47.546;19.254;2023-04-24T05:47:07;12.80;66.70
51215;DHT22;63849;47.546;19.254;2023-04-24T05:49:33;12.70;66.80
51215;DHT22;63849;47.546;19.254;2023-04-24T05:51:59;12.80;67.00
51215;DHT22;63849;47.546;19.254;2023-04-24T05:54:25;13.00;66.70
51215;DHT22;63849;47.546;19.254;2023-04-24T05:56:51;13.30;65.60
51215;DHT22;63849;47.546;19.254;2023-04-24T05:59:17;13.10;66.20
51215;DHT22;63849;47.546;19.254;2023-04-24T06:01:44;13.10;66.20
51215;DHT22;63849;47.546;19.254;2023-04-24T06:04:10;13.10;66.00
51215;DHT22;63849;47.546;19.254;2023-04-24T06:06:36;13.10;66.70
51215;DHT22;63849;47.546;19.254;2023-04-24T06:09:02;13.10;66.80
51215;DHT22;63849;47.546;19.254;2023-04-24T06:11:28;13.30;66.40
51215;DHT22;63849;47.546;19.254;2023-04-24T06:13:55;13.50;65.70
51215;DHT22;63849;47.546;19.254;2023-04-24T06:16:20;13.30;66.40
51215;DHT22;63849;47.546;19.254;2023-04-24T06:18:46;13.20;66.80
51215;DHT22;63849;47.546;19.254;2023-04-24T06:21:12;13.00;67.50
51215;DHT22;63849;47.546;19.254;2023-04-24T06:23:38;13.00;68.60
51215;DHT22;63849;47.546;19.254;2023-04-24T06:26:04;12.90;68.40
51215;DHT22;63849;47.546;19.254;2023-04-24T06:28:30;13.10;69.00
51215;DHT22;63849;47.546;19.254;2023-04-24T06:30:56;13.30;68.10
51215;DHT22;63849;47.546;19.254;2023-04-24T06:33:22;13.70;67.10
51215;DHT22;63849;47.546;19.254;2023-04-24T06:35:47;14.40;65.40
51215;DHT22;63849;47.546;19.254;2023-04-24T06:38:13;15.70;63.00
51215;DHT22;63849;47.546;19.254;2023-04-24T06:40:39;16.10;60.40
51215;DHT22;63849;47.546;19.254;2023-04-24T06:43:05;15.90;59.70
51215;DHT22;63849;47.546;19.254;2023-04-24T06:45:31;15.80;60.40
51215;DHT22;63849;47.546;19.254;2023-04-24T06:47:57;15.80;62.00
51215;DHT22;63849;47.546;19.254;2023-04-24T06:50:24;15.90;61.30
51215;DHT22;63849;47.546;19.254;2023-04-24T06:52:50;15.70;62.00
51215;DHT22;63849;47.546;19.254;2023-04-24T06:55:16;15.40;62.50
51215;DHT22;63849;47.546;19.254;2023-04-24T06:57:45;15.00;62.90
51215;DHT22;63849;47.546;19.254;2023-04-24T07:00:11;14.60;64.50
51215;DHT22;63849;47.546;19.254;2023-04-24T07:02:37;14.40;66.30
51215;DHT22;63849;47.546;19.254;2023-04-24T07:05:04;14.30;68.80
51215;DHT22;63849;47.546;19.254;2023-04-24T07:07:30;14.10;71.30
51215;DHT22;63849;47.546;19.254;2023-04-24T07:09:57;14.00;72.20
51215;DHT22;63849;47.546;19.254;2023-04-24T07:12:23;13.90;73.90
51215;DHT22;63849;47.546;19.254;2023-04-24T07:14:50;13.80;76.90
51215;DHT22;63849;47.546;19.254;2023-04-24T07:17:16;13.80;74.40
51215;DHT22;63849;47.546;19.254;2023-04-24T07:19:42;13.80;75.30
51215;DHT22;63849;47.546;19.254;2023-04-24T07:22:08;13.90;74.60
51215;DHT22;63849;47.546;19.254;2023-04-24T07:24:34;14.00;73.20
51215;DHT22;63849;47.546;19.254;2023-04-24T07:26:59;14.00;73.20
51215;DHT22;63849;47.546;19.254;2023-04-24T07:29:27;13.90;72.40
51215;DHT22;63849;47.546;19.254;2023-04-24T07:31:53;14.10;73.30
51215;DHT22;63849;47.546;19.254;2023-04-24T07:34:19;14.10;72.70
51215;DHT22;63849;47.546;19.254;2023-04-24T07:36:46;14.40;72.40
51215;DHT22;63849;47.546;19.254;2023-04-24T07:39:11;14.40;71.90
51215;DHT22;63849;47.546;19.254;2023-04-24T07:41:38;14.50;71.90
51215;DHT22;63849;47.546;19.254;2023-04-24T07:44:03;14.90;71.40
51215;DHT22;63849;47.546;19.254;2023-04-24T07:46:30;14.90;71.30
51215;DHT22;63849;47.546;19.254;2023-04-24T07:48:56;14.80;72.40
51215;DHT22;63849;47.546;19.254;2023-04-24T07:51:22;14.70;72.40
51215;DHT22;63849;47.546;19.254;2023-04-24T07:53:48;14.40;71.20
51215;DHT22;63849;47.546;19.254;2023-04-24T07:56:13;14.40;72.50
51215;DHT22;63849;47.546;19.254;2023-04-24T07:58:41;14.40;71.50
51215;DHT22;63849;47.546;19.254;2023-04-24T08:01:06;14.50;72.70
51215;DHT22;63849;47.546;19.254;2023-04-24T08:03:32;14.60;72.50
51215;DHT22;63849;47.546;19.254;2023-04-24T08:05:58;14.60;71.80
51215;DHT22;63849;47.546;19.254;2023-04-24T08:08:24;14.90;72.70
51215;DHT22;63849;47.546;19.254;2023-04-24T08:10:52;14.80;71.30
51215;DHT22;63849;47.546;19.254;2023-04-24T08:13:17;15.00;71.20
51215;DHT22;63849;47.546;19.254;2023-04-24T08:15:43;15.00;70.90
51215;DHT22;63849;47.546;19.254;2023-04-24T08:18:09;15.20;71.10
51215;DHT22;63849;47.546;19.254;2023-04-24T08:20:38;15.50;69.60
51215;DHT22;63849;47.546;19.254;2023-04-24T08:23:04;15.60;69.40
51215;DHT22;63849;47.546;19.254;2023-04-24T08:25:30;15.60;69.80
51215;DHT22;63849;47.546;19.254;2023-04-24T08:27:56;15.80;69.30
51215;DHT22;63849;47.546;19.254;2023-04-24T08:30:22;16.00;68.50
51215;DHT22;63849;47.546;19.254;2023-04-24T08:32:48;16.10;67.60
51215;DHT22;63849;47.546;19.254;2023-04-24T08:35:14;16.40;68.80
51215;DHT22;63849;47.546;19.254;2023-04-24T08:37:40;16.60;67.60
51215;DHT22;63849;47.546;19.254;2023-04-24T08:40:12;16.80;67.80
51215;DHT22;63849;47.546;19.254;2023-04-24T08:42:41;16.60;66.20
51215;DHT22;63849;47.546;19.254;2023-04-24T08:45:08;16.30;68.80
51215;DHT22;63849;47.546;19.254;2023-04-24T08:47:37;16.50;68.40
51215;DHT22;63849;47.546;19.254;2023-04-24T08:50:03;16.60;67.70
51215;DHT22;63849;47.546;19.254;2023-04-24T08:52:33;16.70;67.00
51215;DHT22;63849;47.546;19.254;2023-04-24T08:55:00;16.90;66.30
51215;DHT22;63849;47.546;19.254;2023-04-24T08:57:27;17.30;66.90
51215;DHT22;63849;47.546;19.254;2023-04-24T08:59:54;17.30;64.80
51215;DHT22;63849;47.546;19.254;2023-04-24T09:02:21;17.20;66.40
51215;DHT22;63849;47.546;19.254;2023-04-24T09:04:48;17.60;63.80
51215;DHT22;63849;47.546;19.254;2023-04-24T09:07:16;17.60;64.30
51215;DHT22;63849;47.546;19.254;2023-04-24T09:09:44;17.80;64.70
51215;DHT22;63849;47.546;19.254;2023-04-24T09:12:10;18.10;64.10
51215;DHT22;63849;47.546;19.254;2023-04-24T09:14:36;18.50;61.90
51215;DHT22;63849;47.546;19.254;2023-04-24T09:17:06;18.70;61.60
51215;DHT22;63849;47.546;19.254;2023-04-24T09:19:32;18.50;60.70
51215;DHT22;63849;47.546;19.254;2023-04-24T09:21:57;18.40;60.70
51215;DHT22;63849;47.546;19.254;2023-04-24T09:24:23;18.10;61.30
51215;DHT22;63849;47.546;19.254;2023-04-24T09:26:58;18.40;62.40
51215;DHT22;63849;47.546;19.254;2023-04-24T09:29:25;18.90;61.00
51215;DHT22;63849;47.546;19.254;2023-04-24T09:31:51;19.00;60.70
51215;DHT22;63849;47.546;19.254;2023-04-24T09:34:27;19.10;59.00
51215;DHT22;63849;47.546;19.254;2023-04-24T09:36:54;19.30;59.70
51215;DHT22;63849;47.546;19.254;2023-04-24T09:39:20;19.30;58.80
51215;DHT22;63849;47.546;19.254;2023-04-24T09:41:48;19.30;57.30
51215;DHT22;63849;47.546;19.254;2023-04-24T09:44:17;19.40;56.20
51215;DHT22;63849;47.546;19.254;2023-04-24T09:46:45;19.30;55.80
51215;DHT22;63849;47.546;19.254;2023-04-24T09:49:16;19.40;54.40
51215;DHT22;63849;47.546;19.254;2023-04-24T09:51:42;18.90;54.80
51215;DHT22;63849;47.546;19.254;2023-04-24T09:54:21;19.10;55.90
51215;DHT22;63849;47.546;19.254;2023-04-24T09:56:50;19.10;53.70
51215;DHT22;63849;47.546;19.254;2023-04-24T09:59:18;19.30;55.20
51215;DHT22;63849;47.546;19.254;2023-04-24T10:01:44;19.90;56.10
51215;DHT22;63849;47.546;19.254;2023-04-24T10:04:23;20.20;54.90
51215;DHT22;63849;47.546;19.254;2023-04-24T10:06:56;20.20;54.30
51215;DHT22;63849;47.546;19.254;2023-04-24T10:09:24;20.00;52.70
51215;DHT22;63849;47.546;19.254;2023-04-24T10:11:52;19.70;55.70
51215;DHT22;63849;47.546;19.254;2023-04-24T10:14:21;19.50;55.50
51215;DHT22;63849;47.546;19.254;2023-04-24T10:16:49;19.70;56.50
51215;DHT22;63849;47.546;19.254;2023-04-24T10:19:16;19.90;56.10
51215;DHT22;63849;47.546;19.254;2023-04-24T10:21:44;20.40;55.40
51215;DHT22;63849;47.546;19.254;2023-04-24T10:24:18;20.50;53.80
51215;DHT22;63849;47.546;19.254;2023-04-24T10:26:50;20.40;50.40
51215;DHT22;63849;47.546;19.254;2023-04-24T10:29:18;20.40;52.70
51215;DHT22;63849;47.546;19.254;2023-04-24T10:31:45;20.30;52.40
51215;DHT22;63849;47.546;19.254;2023-04-24T10:34:12;20.30;51.90
51215;DHT22;63849;47.546;19.254;2023-04-24T10:36:45;19.70;51.10
51215;DHT22;63849;47.546;19.254;2023-04-24T10:39:13;19.40;50.10
51215;DHT22;63849;47.546;19.254;2023-04-24T10:41:43;19.30;51.80
51215;DHT22;63849;47.546;19.254;2023-04-24T10:44:11;19.10;52.20
51215;DHT22;63849;47.546;19.254;2023-04-24T10:46:38;19.30;52.40
51215;DHT22;63849;47.546;19.254;2023-04-24T10:49:08;19.30;51.60
51215;DHT22;63849;47.546;19.254;2023-04-24T10:51:51;19.40;52.80
51215;DHT22;63849;47.546;19.254;2023-04-24T10:59:46;19.80;51.30
51215;DHT22;63849;47.546;19.254;2023-04-24T11:02:16;19.90;51.50
51215;DHT22;63849;47.546;19.254;2023-04-24T11:04:43;19.80;51.20
51215;DHT22;63849;47.546;19.254;2023-04-24T11:07:10;19.60;52.70
51215;DHT22;63849;47.546;19.254;2023-04-24T11:09:38;19.80;53.20
51215;DHT22;63849;47.546;19.254;2023-04-24T11:12:08;19.40;53.70
51215;DHT22;63849;47.546;19.254;2023-04-24T11:14:59;19.40;54.00
51215;DHT22;63849;47.546;19.254;2023-04-24T11:17:33;19.50;53.60
51215;DHT22;63849;47.546;19.254;2023-04-24T11:20:07;19.70;53.30
51215;DHT22;63849;47.546;19.254;2023-04-24T11:22:35;19.60;53.60
51215;DHT22;63849;47.546;19.254;2023-04-24T11:25:04;19.50;54.40
51215;DHT22;63849;47.546;19.254;2023-04-24T11:27:31;19.40;53.90
51215;DHT22;63849;47.546;19.254;2023-04-24T11:30:02;19.80;54.50
51215;DHT22;63849;47.546;19.254;2023-04-24T11:32:41;19.80;52.90
51215;DHT22;63849;47.546;19.254;2023-04-24T11:35:16;20.10;54.00
51215;DHT22;63849;47.546;19.254;2023-04-24T11:37:43;19.80;54.00
51215;DHT22;63849;47.546;19.254;2023-04-24T11:40:24;19.90;53.00
51215;DHT22;63849;47.546;19.254;2023-04-24T11:42:52;19.90;54.20
51215;DHT22;63849;47.546;19.254;2023-04-24T11:45:26;20.30;53.30
51215;DHT22;63849;47.546;19.254;2023-04-24T11:47:56;20.30;51.20
51215;DHT22;63849;47.546;19.254;2023-04-24T11:50:24;20.30;52.50
51215;DHT22;63849;47.546;19.254;2023-04-24T11:52:51;20.20;52.10
51215;DHT22;63849;47.546;19.254;2023-04-24T11:57:49;19.90;50.70
51215;DHT22;63849;47.546;19.254;2023-04-24T12:00:24;19.70;51.20
51215;DHT22;63849;47.546;19.254;2023-04-24T12:02:50;19.40;53.20
51215;DHT22;63849;47.546;19.254;2023-04-24T12:05:26;19.40;53.50
51215;DHT22;63849;47.546;19.254;2023-04-24T12:07:53;19.60;54.50
51215;DHT22;63849;47.546;19.254;2023-04-24T12:10:24;19.80;54.00
51215;DHT22;63849;47.546;19.254;2023-04-24T12:12:51;19.80;53.90
51215;DHT22;63849;47.546;19.254;2023-04-24T12:15:18;19.50;53.60
51215;DHT22;63849;47.546;19.254;2023-04-24T12:17:45;19.40;54.50
51215;DHT22;63849;47.546;19.254;2023-04-24T12:20:12;19.20;55.60
51215;DHT22;63849;47.546;19.254;2023-04-24T12:22:45;19.10;56.40
51215;DHT22;63849;47.546;19.254;2023-04-24T12:25:13;18.90;57.60
51215;DHT22;63849;47.546;19.254;2023-04-24T12:27:39;18.60;57.70
51215;DHT22;63849;47.546;19.254;2023-04-24T12:30:05;18.50;59.30
51215;DHT22;63849;47.546;19.254;2023-04-24T12:32:35;18.40;59.70
51215;DHT22;63849;47.546;19.254;2023-04-24T12:35:06;18.60;59.90
51215;DHT22;63849;47.546;19.254;2023-04-24T12:37:33;18.50;56.20
51215;DHT22;63849;47.546;19.254;2023-04-24T12:40:03;18.70;54.40
51215;DHT22;63849;47.546;19.254;2023-04-24T12:42:30;19.10;53.00
51215;DHT22;63849;47.546;19.254;2023-04-24T12:45:01;19.10;53.20
51215;DHT22;63849;47.546;19.254;2023-04-24T12:47:32;19.30;54.60
51215;DHT22;63849;47.546;19.254;2023-04-24T12:49:58;19.10;56.00
51215;DHT22;63849;47.546;19.254;2023-04-24T12:52:29;19.40;55.90
51215;DHT22;63849;47.546;19.254;2023-04-24T12:54:57;19.40;56.80
51215;DHT22;63849;47.546;19.254;2023-04-24T12:57:24;19.30;58.60
51215;DHT22;63849;47.546;19.254;2023-04-24T12:59:53;19.20;60.10
51215;DHT22;63849;47.546;19.254;2023-04-24T13:02:19;19.00;61.70
51215;DHT22;63849;47.546;19.254;2023-04-24T13:04:46;18.80;63.10
51215;DHT22;63849;47.546;19.254;2023-04-24T13:07:13;18.80;64.20
51215;DHT22;63849;47.546;19.254;2023-04-24T13:09:40;18.80;64.20
51215;DHT22;63849;47.546;19.254;2023-04-24T13:12:06;18.80;64.10
51215;DHT22;63849;47.546;19.254;2023-04-24T13:14:35;18.80;63.60
51215;DHT22;63849;47.546;19.254;2023-04-24T13:17:01;18.80;63.50
51215;DHT22;63849;47.546;19.254;2023-04-24T13:19:28;18.50;63.60
51215;DHT22;63849;47.546;19.254;2023-04-24T13:21:55;18.70;63.90
51215;DHT22;63849;47.546;19.254;2023-04-24T13:24:24;18.80;64.90
51215;DHT22;63849;47.546;19.254;2023-04-24T13:26:55;18.90;63.50
51215;DHT22;63849;47.546;19.254;2023-04-24T13:29:22;18.50;63.50
51215;DHT22;63849;47.546;19.254;2023-04-24T13:31:51;18.20;64.90
51215;DHT22;63849;47.546;19.254;2023-04-24T13:34:17;17.90;65.40
51215;DHT22;63849;47.546;19.254;2023-04-24T13:36:43;18.00;66.30
51215;DHT22;63849;47.546;19.254;2023-04-24T13:39:09;18.10;65.40
51215;DHT22;63849;47.546;19.254;2023-04-24T13:41:36;18.10;64.90
51215;DHT22;63849;47.546;19.254;2023-04-24T13:44:06;17.90;65.50
51215;DHT22;63849;47.546;19.254;2023-04-24T13:46:31;17.90;66.00
51215;DHT22;63849;47.546;19.254;2023-04-24T13:48:58;17.80;65.70
51215;DHT22;63849;47.546;19.254;2023-04-24T13:51:25;17.90;66.10
51215;DHT22;63849;47.546;19.254;2023-04-24T13:53:54;17.50;65.90
51215;DHT22;63849;47.546;19.254;2023-04-24T13:56:20;17.40;67.60
51215;DHT22;63849;47.546;19.254;2023-04-24T13:58:47;17.40;67.50
51215;DHT22;63849;47.546;19.254;2023-04-24T14:01:14;17.30;67.90
51215;DHT22;63849;47.546;19.254;2023-04-24T14:03:41;17.10;69.00
51215;DHT22;63849;47.546;19.254;2023-04-24T14:06:07;16.90;69.30
51215;DHT22;63849;47.546;19.254;2023-04-24T14:08:33;16.80;70.40
51215;DHT22;63849;47.546;19.254;2023-04-24T14:10:58;16.90;70.20
51215;DHT22;63849;47.546;19.254;2023-04-24T14:13:24;17.00;69.60
51215;DHT22;63849;47.546;19.254;2023-04-24T14:15:51;16.80;70.10
51215;DHT22;63849;47.546;19.254;2023-04-24T14:18:18;16.80;70.50
51215;DHT22;63849;47.546;19.254;2023-04-24T14:20:44;16.80;70.40
51215;DHT22;63849;47.546;19.254;2023-04-24T14:23:11;16.80;70.00
51215;DHT22;63849;47.546;19.254;2023-04-24T14:25:39;16.70;70.10
51215;DHT22;63849;47.546;19.254;2023-04-24T14:28:06;16.80;69.90
51215;DHT22;63849;47.546;19.254;2023-04-24T14:30:32;16.60;70.10
51215;DHT22;63849;47.546;19.254;2023-04-24T14:32:59;16.40;70.30
51215;DHT22;63849;47.546;19.254;2023-04-24T14:35:25;16.30;70.60
51215;DHT22;63849;47.546;19.254;2023-04-24T14:37:51;16.30;71.10
51215;DHT22;63849;47.546;19.254;2023-04-24T14:40:17;16.10;72.10
51215;DHT22;63849;47.546;19.254;2023-04-24T14:42:42;16.20;71.60
51215;DHT22;63849;47.546;19.254;2023-04-24T14:45:09;16.10;73.20
51215;DHT22;63849;47.546;19.254;2023-04-24T14:47:36;16.20;73.70
51215;DHT22;63849;47.546;19.254;2023-04-24T14:50:02;16.30;73.00
51215;DHT22;63849;47.546;19.254;2023-04-24T14:52:29;16.50;72.30
51215;DHT22;63849;47.546;19.254;2023-04-24T14:54:55;16.40;72.80
51215;DHT22;63849;47.546;19.254;2023-04-24T14:57:25;16.40;73.40
51215;DHT22;63849;47.546;19.254;2023-04-24T14:59:50;16.50;73.20
51215;DHT22;63849;47.546;19.254;2023-04-24T15:02:16;16.70;73.20
51215;DHT22;63849;47.546;19.254;2023-04-24T15:04:42;16.70;73.40
51215;DHT22;63849;47.546;19.254;2023-04-24T15:07:08;16.60;73.00
51215;DHT22;63849;47.546;19.254;2023-04-24T15:09:33;16.40;73.00
51215;DHT22;63849;47.546;19.254;2023-04-24T15:12:05;16.50;73.10
51215;DHT22;63849;47.546;19.254;2023-04-24T15:14:30;16.70;73.30
51215;DHT22;63849;47.546;19.254;2023-04-24T15:16:56;16.80;72.50
51215;DHT22;63849;47.546;19.254;2023-04-24T15:19:22;16.80;72.30
51215;DHT22;63849;47.546;19.254;2023-04-24T15:21:48;16.80;72.40